West Fulton, NY (12194)

6:38 PM EDT on May 06, 2015 (GMT -0400)
Leonard Hill | | Change Station
CLOSE
Current Station
Personal Weather Station
Location: Gilboa, NY
Elevation: 2320 ft
Nearby Weather Stations

Elev 2320 ft 42.45 °N, 74.36 °W | Updated 2 minutes ago

Clear
Clear
64.8 °F
Feels Like 64.8 °F
N
5.4
Wind Variable Wind from ENE
Gusts 9.0 mph

Today
High -- | Low -- °F
--% Chance of Precip.
Yesterday
High -- | Low -- °F
Precip. -- in
5:46 AM 8:03 PM
Waning Gibbous, 92% visible
Pressure 30.17 in
Visibility 10.0 miles
Clouds Few 26000 ft
Dew Point 34 °F
Humidity 32%
Rainfall 0.00 in
Snow Depth Not available.
UV 2 out of 12
Pollen 10.00 out of 12
Air Quality Not available.
Flu Activity Widespread
METAR KALB 062151Z 00000KT 10SM FEW260 24/M01 A3017 RMK AO2 SLP217 T02441006

More Conditions Fewer Conditions

Pressure 30.17 in
Visibility 10.0 miles
Clouds Few 26000 ft
Dew Point 34 °F
Humidity 32%
Rainfall 0.00 in
Snow Depth Not available.
UV 2 out of 12
Pollen 10.00 out of 12
Air Quality Not available.
Flu Activity Widespread
METAR KALB 062151Z 00000KT 10SM FEW260 24/M01 A3017 RMK AO2 SLP217 T02441006

More Conditions Fewer Conditions

10-Day Weather Forecast

Almanac

Astronomy

May. 06, 2015 Rise Set
Actual Time
Civil Twilight
Nautical Twilight
Astronomical Twilight
Moon
Length of Visible Light
Length of Day
Tomorrow will be .
, % of the Moon is Illuminated

Today's Extremes

State Highs State Lows

Community

WunderPhotos

Upload Photos

1,819,031 photos uploaded!

WunderBlogs® & News

Nearby

Air Quality

  Air Quality AQ Index Pollutant
Not available.

Snow Depth

Station Depth Elevation

Earthquake Activity

City Distance Mag. Time & Date
Minimum magnitude displayed is 2.5.

Coastal Water Temperatures

Place Temperature

Stations

Nearby Weather Stations

Station Location Temp. Windchill Dew Point Humidity Wind Precip. Elev Updated Type